TAF AMD ETNH 251021Z 2510/2518 22007KT 6000 NSW BKN005
TEMPO 2510/2511 VRB03KT 2000 BR OVC002
BECMG 2511/2513 25010KT 9999 NSW BKN007 BY ETGL
From batch tds/tafs/production/2023/1/25/h10_m29_tafs.cache.xml
Issued (10 days ago)
Forecasts
2510/2511 22007KT BKN500

---
wx_string: NSW
fcst_time_to: '2023-01-25T11:00:00Z'
sky_condition:
- sky_cover: BKN
  cloud_base_ft_agl: '500'
wind_speed_kt: '7'
fcst_time_from: '2023-01-25T10:00:00Z'
wind_dir_degrees: '220'
visibility_statute_mi: '3.73'

TEMPO 2510/2511 VRB03KT OVC200

---
wx_string: BR
fcst_time_to: '2023-01-25T11:00:00Z'
sky_condition:
- sky_cover: OVC
  cloud_base_ft_agl: '200'
wind_speed_kt: '3'
fcst_time_from: '2023-01-25T10:00:00Z'
change_indicator: TEMPO
wind_dir_degrees: '0'
visibility_statute_mi: '1.24'

BECMG 2513/2518 25010KT P6SM BKN700

---
wx_string: NSW
fcst_time_to: '2023-01-25T18:00:00Z'
sky_condition:
- sky_cover: BKN
  cloud_base_ft_agl: '700'
time_becoming: '2023-01-25T13:00:00Z'
wind_speed_kt: '10'
fcst_time_from: '2023-01-25T11:00:00Z'
change_indicator: BECMG
wind_dir_degrees: '250'
visibility_statute_mi: '6.21'

talk